createdAt,value
2023-01-02T00:01:15.741Z,100949.84
2023-01-02T00:03:43.780Z,100954.44
2023-01-02T00:06:11.788Z,100942.66
2023-01-02T00:08:41.035Z,100945.41
2023-01-02T00:11:08.884Z,100939.78
2023-01-02T00:13:36.875Z,100929.50
2023-01-02T00:16:05.045Z,100932.25
2023-01-02T00:18:33.009Z,100913.97
2023-01-02T00:21:03.745Z,100918.59
2023-01-02T00:23:33.010Z,100913.97
2023-01-02T00:26:02.241Z,100913.13
2023-01-02T00:28:30.835Z,100904.94
2023-01-02T00:30:59.597Z,100912.28
2023-01-02T00:33:27.492Z,100914.69
2023-01-02T00:35:55.330Z,100896.09
2023-01-02T00:38:23.203Z,100890.63
2023-01-02T00:40:51.039Z,100889.47
2023-01-02T00:43:20.257Z,100891.50
2023-01-02T00:45:48.849Z,100874.16
2023-01-02T00:48:16.836Z,100874.66
2023-01-02T00:50:45.517Z,100864.91
2023-01-02T00:53:13.615Z,100877.75
2023-01-02T00:55:41.723Z,100869.56
2023-01-02T00:58:09.692Z,100855.22
2023-01-02T01:00:39.049Z,100843.28
2023-01-02T01:03:07.095Z,100834.78
2023-01-02T01:05:35.133Z,100830.69
2023-01-02T01:08:03.149Z,100833.56
2023-01-02T01:10:31.024Z,100836.00
2023-01-02T01:12:59.076Z,100824.56
2023-01-02T01:15:26.895Z,100824.88
2023-01-02T01:17:56.242Z,100824.22
2023-01-02T01:20:24.043Z,100822.19
2023-01-02T01:22:52.162Z,100814.31
2023-01-02T01:25:20.231Z,100814.53
2023-01-02T01:27:48.176Z,100824.75
2023-01-02T01:30:16.212Z,100821.84
2023-01-02T01:32:44.117Z,100811.47
2023-01-02T01:35:13.604Z,100818.13
2023-01-02T01:37:41.532Z,100815.75
2023-01-02T01:40:09.907Z,100822.38
2023-01-02T01:42:37.818Z,100822.38
2023-01-02T01:45:14.531Z,100822.34
2023-01-02T01:47:46.977Z,100820.47
2023-01-02T01:50:20.993Z,100820.81
2023-01-02T01:52:53.193Z,100820.13
2023-01-02T01:55:28.034Z,100818.81
2023-01-02T01:57:59.360Z,100823.41
2023-01-02T02:00:27.324Z,100825.28
2023-01-02T02:03:00.388Z,100819.50
2023-01-02T02:05:32.129Z,100815.22
2023-01-02T02:08:09.369Z,100798.47
2023-01-02T02:10:38.094Z,100805.00
2023-01-02T02:13:06.142Z,100788.13
2023-01-02T02:15:42.603Z,100787.94
2023-01-02T02:18:27.211Z,100790.50
2023-01-02T02:21:02.092Z,100787.28
2023-01-02T02:23:54.354Z,100776.13
2023-01-02T02:26:42.473Z,100785.38
2023-01-02T02:29:34.981Z,100775.16
2023-01-02T02:32:11.990Z,100776.38
2023-01-02T02:34:48.382Z,100767.84
2023-01-02T02:37:24.696Z,100773.63
2023-01-02T02:40:02.304Z,100772.28
2023-01-02T02:42:43.231Z,100772.28
2023-01-02T02:45:21.122Z,100778.94
2023-01-02T02:47:57.169Z,100778.25
2023-01-02T02:50:33.671Z,100770.59
2023-01-02T02:53:09.095Z,100773.28
2023-01-02T02:55:40.721Z,100766.31
2023-01-02T02:58:09.883Z,100765.47
2023-01-02T03:00:37.877Z,100758.81
2023-01-02T03:03:17.086Z,100753.69
2023-01-02T03:05:56.705Z,100739.53
2023-01-02T03:08:33.859Z,100744.81
2023-01-02T03:11:04.496Z,100743.28
2023-01-02T03:13:44.932Z,100749.44
2023-01-02T03:16:18.697Z,100750.66
2023-01-02T03:18:55.302Z,100754.03
2023-01-02T03:21:31.395Z,100769.34
2023-01-02T03:24:05.481Z,100765.81
2023-01-02T03:26:36.062Z,100762.88
2023-01-02T03:29:09.276Z,100760.47
2023-01-02T03:31:41.618Z,100765.59
2023-01-02T03:34:15.485Z,100764.56
2023-01-02T03:36:46.661Z,100746.88
2023-01-02T03:39:19.172Z,100756.22
2023-01-02T03:41:54.253Z,100750.75
2023-01-02T03:44:25.010Z,100749.75
2023-01-02T03:47:00.186Z,100755.41
2023-01-02T03:49:33.948Z,100771.56
2023-01-02T03:52:01.898Z,100762.72
2023-01-02T03:54:31.039Z,100759.84
2023-01-02T03:57:03.671Z,100763.25
2023-01-02T03:59:55.964Z,100759.84
2023-01-02T04:02:33.179Z,100751.00
2023-01-02T04:05:08.310Z,100754.53
2023-01-02T04:07:43.847Z,100753.34
2023-01-02T04:10:15.385Z,100747.53
2023-01-02T04:12:48.151Z,100751.47
2023-01-02T04:15:20.972Z,100750.25
2023-01-02T04:17:52.869Z,100765.72
2023-01-02T04:20:27.693Z,100760.97
2023-01-02T04:22:58.538Z,100757.22
2023-01-02T04:25:32.079Z,100745.44
2023-01-02T04:28:02.073Z,100747.81
2023-01-02T04:30:33.360Z,100763.91
2023-01-02T04:33:07.855Z,100761.16
2023-01-02T04:35:37.334Z,100756.38
2023-01-02T04:38:09.325Z,100767.63
2023-01-02T04:40:37.782Z,100773.59
2023-01-02T04:43:08.412Z,100761.31
2023-01-02T04:45:36.281Z,100753.31
2023-01-02T04:48:04.407Z,100752.97
2023-01-02T04:50:32.345Z,100758.94
2023-01-02T04:53:03.287Z,100757.72
2023-01-02T04:55:31.315Z,100747.66
2023-01-02T04:57:59.368Z,100750.59
2023-01-02T05:00:27.446Z,100749.75
2023-01-02T05:02:55.333Z,100741.16
2023-01-02T05:05:23.233Z,100741.34
2023-01-02T05:07:51.131Z,100738.78
2023-01-02T05:10:20.513Z,100750.03
2023-01-02T05:12:48.371Z,100747.38
2023-01-02T05:15:16.465Z,100746.66
2023-01-02T05:17:44.319Z,100751.47
2023-01-02T05:20:14.069Z,100757.88
2023-01-02T05:23:00.556Z,100758.22
2023-01-02T05:25:33.886Z,100759.28
2023-01-02T05:28:03.056Z,100754.66
2023-01-02T05:30:31.132Z,100766.97
2023-01-02T05:32:59.032Z,100753.69
2023-01-02T05:35:32.157Z,100757.94
2023-01-02T05:38:00.807Z,100754.50
2023-01-02T05:40:30.451Z,100758.75
2023-01-02T05:42:59.498Z,100757.69
2023-01-02T05:45:27.742Z,100762.81
2023-01-02T05:47:55.591Z,100764.38
2023-01-02T05:50:23.494Z,100762.16
2023-01-02T05:52:51.323Z,100766.88
2023-01-02T05:55:19.183Z,100767.28
2023-01-02T05:57:48.495Z,100770.16
2023-01-02T06:00:17.183Z,100765.53
2023-01-02T06:02:48.336Z,100769.44
2023-01-02T06:05:17.132Z,100764.00
2023-01-02T06:07:45.045Z,100761.41
2023-01-02T06:10:13.051Z,100761.06
2023-01-02T06:12:41.443Z,100783.72
2023-01-02T06:15:11.992Z,100768.88
2023-01-02T06:17:39.938Z,100787.03
2023-01-02T06:20:09.023Z,100776.28
2023-01-02T06:22:37.712Z,100787.19
2023-01-02T06:25:06.815Z,100797.59
2023-01-02T06:27:34.668Z,100791.59
2023-01-02T06:30:02.698Z,100796.56
2023-01-02T06:32:32.134Z,100795.38
2023-01-02T06:35:00.048Z,100797.94
2023-01-02T06:37:27.938Z,100809.72
2023-01-02T06:39:56.918Z,100801.47
2023-01-02T06:42:24.700Z,100802.00
2023-01-02T06:44:52.556Z,100800.63
2023-01-02T06:47:20.481Z,100805.13
2023-01-02T06:49:49.759Z,100807.53
2023-01-02T06:52:17.938Z,100807.56
2023-01-02T06:54:45.905Z,100812.66
2023-01-02T06:57:13.813Z,100826.31
2023-01-02T06:59:42.781Z,100829.22
2023-01-02T07:02:12.536Z,100833.13
2023-01-02T07:04:41.071Z,100836.34
2023-01-02T07:07:10.672Z,100850.66
2023-01-02T07:09:38.653Z,100856.31
2023-01-02T07:12:07.037Z,100871.97
2023-01-02T07:14:35.047Z,100884.38
2023-01-02T07:17:02.951Z,100905.78
2023-01-02T07:19:30.821Z,100895.88
2023-01-02T07:21:58.632Z,100904.53
2023-01-02T07:24:27.913Z,100908.72
2023-01-02T07:26:55.917Z,100909.47
2023-01-02T07:29:23.987Z,100919.38
2023-01-02T07:31:52.003Z,100929.50
2023-01-02T07:34:19.895Z,100934.88
2023-01-02T07:36:47.885Z,100951.22
2023-01-02T07:39:16.288Z,100967.25
2023-01-02T07:41:45.717Z,100959.09
2023-01-02T07:44:15.797Z,100975.50
2023-01-02T07:46:43.768Z,100975.88
2023-01-02T07:49:13.385Z,100985.34
2023-01-02T07:51:41.353Z,100994.91
2023-01-02T07:54:09.476Z,100989.47
2023-01-02T07:56:37.383Z,101006.03
2023-01-02T07:59:06.915Z,101000.53
2023-01-02T08:01:34.849Z,101015.81
2023-01-02T08:04:02.924Z,101019.22
2023-01-02T08:06:31.149Z,101027.38
2023-01-02T08:08:59.099Z,101042.03
2023-01-02T08:11:27.090Z,101050.34
2023-01-02T08:13:54.910Z,101067.22
2023-01-02T08:16:24.537Z,101070.84
2023-01-02T08:18:55.589Z,101079.25
2023-01-02T08:21:24.682Z,101079.41
2023-01-02T08:23:52.893Z,101094.75
2023-01-02T08:26:21.647Z,101095.28
2023-01-02T08:28:49.987Z,101105.47
2023-01-02T08:31:21.161Z,101110.38
2023-01-02T08:33:52.213Z,101118.28
2023-01-02T08:36:20.614Z,101124.41
2023-01-02T08:38:48.812Z,101139.19
2023-01-02T08:41:16.764Z,101165.16
2023-01-02T08:43:44.780Z,101159.19
2023-01-02T08:46:12.863Z,101171.69
2023-01-02T08:48:41.009Z,101170.84
2023-01-02T08:51:12.017Z,101184.38
2023-01-02T08:53:39.911Z,101199.06
2023-01-02T08:56:25.273Z,101203.31
2023-01-02T08:58:54.369Z,101223.66
2023-01-02T09:01:23.566Z,101226.00
2023-01-02T09:03:53.433Z,101238.94
2023-01-02T09:06:24.746Z,101250.56
2023-01-02T09:08:53.351Z,101245.13
2023-01-02T09:11:24.098Z,101257.50
2023-01-02T09:13:52.549Z,101263.56
2023-01-02T09:16:21.652Z,101261.81
2023-01-02T09:18:50.011Z,101261.41
2023-01-02T09:21:18.624Z,101272.69
2023-01-02T09:23:47.959Z,101268.38
2023-01-02T09:26:16.555Z,101282.53
2023-01-02T09:28:45.355Z,101273.22
2023-01-02T09:31:17.622Z,101277.88
2023-01-02T09:33:47.626Z,101278.22
2023-01-02T09:36:16.807Z,101281.81
2023-01-02T09:38:45.525Z,101281.56
2023-01-02T09:41:29.097Z,101290.44
2023-01-02T09:44:01.049Z,101291.56
2023-01-02T09:46:35.141Z,101314.06
2023-01-02T09:49:04.961Z,101322.00
2023-01-02T09:51:35.368Z,101323.63
2023-01-02T09:54:04.479Z,101323.94
2023-01-02T09:56:39.789Z,101330.38
2023-01-02T09:59:15.277Z,101342.00
2023-01-02T10:01:55.906Z,101359.16
2023-01-02T10:04:37.374Z,101372.63
2023-01-02T10:07:10.648Z,101367.78
2023-01-02T10:09:47.598Z,101362.66
2023-01-02T10:12:26.779Z,101350.16
2023-01-02T10:14:58.872Z,101363.75
2023-01-02T10:17:29.467Z,101365.47
2023-01-02T10:20:01.806Z,101379.59
2023-01-02T10:22:36.929Z,101378.19
2023-01-02T10:25:09.230Z,101376.34
2023-01-02T10:27:44.179Z,101364.31
2023-01-02T10:30:20.339Z,101373.16
2023-01-02T10:32:56.892Z,101375.88
2023-01-02T10:35:36.157Z,101370.63
2023-01-02T10:38:04.923Z,101388.66
2023-01-02T10:40:34.298Z,101384.09
2023-01-02T10:43:03.855Z,101379.50
2023-01-02T10:45:32.433Z,101375.59
2023-01-02T10:48:00.331Z,101371.44
2023-01-02T10:50:31.904Z,101364.97
2023-01-02T10:53:08.574Z,101371.28
2023-01-02T10:55:40.389Z,101379.31
2023-01-02T10:58:22.919Z,101374.72
2023-01-02T11:00:52.937Z,101374.97
2023-01-02T11:03:25.426Z,101375.91
2023-01-02T11:05:59.377Z,101382.75
2023-01-02T11:08:40.561Z,101370.59
2023-01-02T11:11:14.888Z,101374.41
2023-01-02T11:13:54.078Z,101376.53
2023-01-02T11:16:25.084Z,101385.19
2023-01-02T11:18:55.170Z,101395.44
2023-01-02T11:21:29.083Z,101397.91
2023-01-02T11:24:03.134Z,101399.31
2023-01-02T11:26:33.818Z,101393.25
2023-01-02T11:29:08.481Z,101384.34
2023-01-02T11:31:37.435Z,101386.50
2023-01-02T11:34:10.821Z,101388.34
2023-01-02T11:36:38.784Z,101403.66
2023-01-02T11:39:23.003Z,101411.91
2023-01-02T11:42:15.028Z,101413.66
2023-01-02T11:44:54.196Z,101410.63
2023-01-02T11:47:33.439Z,101424.06
2023-01-02T11:50:02.200Z,101428.47
2023-01-02T11:52:42.718Z,101432.66
2023-01-02T11:55:25.414Z,101431.81
2023-01-02T11:58:01.048Z,101443.41
2023-01-02T12:00:34.446Z,101444.28
2023-01-02T12:03:06.122Z,101440.22
2023-01-02T12:05:44.296Z,101451.25
2023-01-02T12:08:25.600Z,101447.09
2023-01-02T12:11:06.227Z,101450.94
2023-01-02T12:13:50.854Z,101450.22
2023-01-02T12:16:34.257Z,101451.50
2023-01-02T12:19:27.029Z,101458.75
2023-01-02T12:22:05.824Z,101467.47
2023-01-02T12:24:49.169Z,101467.31
2023-01-02T12:27:23.420Z,101472.91
2023-01-02T12:30:05.163Z,101474.16
2023-01-02T12:33:02.621Z,101479.03
2023-01-02T12:35:48.872Z,101465.59
2023-01-02T12:38:30.048Z,101475.38
2023-01-02T12:41:11.367Z,101471.47
2023-01-02T12:44:09.748Z,101462.28
2023-01-02T12:47:02.576Z,101477.47
2023-01-02T12:49:53.395Z,101478.31
2023-01-02T12:52:34.975Z,101474.31
2023-01-02T12:55:18.146Z,101474.50
2023-01-02T12:57:55.975Z,101475.78
2023-01-02T13:01:04.216Z,101474.19
2023-01-02T13:04:02.905Z,101480.50
2023-01-02T13:06:44.447Z,101483.66
2023-01-02T13:09:22.766Z,101467.06
2023-01-02T13:12:10.533Z,101480.94
2023-01-02T13:14:43.472Z,101492.25
2023-01-02T13:17:38.922Z,101498.84
2023-01-02T13:20:15.751Z,101495.81
2023-01-02T13:22:55.447Z,101499.25
2023-01-02T13:25:25.740Z,101498.41
2023-01-02T13:27:58.006Z,101505.41
2023-01-02T13:30:40.017Z,101503.41
2023-01-02T13:33:22.000Z,101508.56
2023-01-02T13:35:51.112Z,101521.31
2023-01-02T13:38:22.994Z,101506.00
2023-01-02T13:40:56.943Z,101502.56
2023-01-02T13:43:29.092Z,101491.38
2023-01-02T13:45:59.198Z,101511.16
2023-01-02T13:48:33.627Z,101493.38
2023-01-02T13:51:04.707Z,101506.69
2023-01-02T13:53:38.920Z,101510.28
2023-01-02T13:56:10.095Z,101502.09
2023-01-02T13:58:49.536Z,101508.97
2023-01-02T14:01:49.336Z,101521.59
2023-01-02T14:04:38.811Z,101531.63
2023-01-02T14:07:39.426Z,101531.19
2023-01-02T14:10:45.699Z,101530.47
2023-01-02T14:13:22.663Z,101541.63
2023-01-02T14:16:23.519Z,101543.94
2023-01-02T14:19:06.873Z,101555.69
2023-01-02T14:21:38.408Z,101567.56
2023-01-02T14:24:16.968Z,101561.09
2023-01-02T14:26:53.381Z,101565.97
2023-01-02T14:29:22.697Z,101579.13
2023-01-02T14:31:59.269Z,101576.53
2023-01-02T14:34:27.846Z,101581.28
2023-01-02T14:36:58.539Z,101574.28
2023-01-02T14:39:30.345Z,101572.56
2023-01-02T14:42:40.062Z,101567.53
2023-01-02T14:45:13.051Z,101572.84
2023-01-02T14:47:43.889Z,101587.00
2023-01-02T14:50:15.497Z,101584.88
2023-01-02T14:52:46.665Z,101586.41
2023-01-02T14:55:18.861Z,101576.84
2023-01-02T14:57:51.164Z,101580.72
2023-01-02T15:00:33.083Z,101574.69
2023-01-02T15:03:15.403Z,101591.88
2023-01-02T15:05:48.761Z,101596.63
2023-01-02T15:08:20.001Z,101614.22
2023-01-02T15:11:19.076Z,101624.09
2023-01-02T15:14:03.952Z,101629.38
2023-01-02T15:16:42.506Z,101638.38
2023-01-02T15:19:19.285Z,101638.69
2023-01-02T15:21:48.020Z,101654.91
2023-01-02T15:24:26.104Z,101653.16
2023-01-02T15:26:54.752Z,101666.31
2023-01-02T15:29:26.924Z,101657.34
2023-01-02T15:31:57.493Z,101657.13
2023-01-02T15:34:27.971Z,101661.34
2023-01-02T15:36:58.235Z,101669.19
2023-01-02T15:39:33.934Z,101664.53
2023-01-02T15:42:08.142Z,101660.81
2023-01-02T15:44:59.102Z,101671.00
2023-01-02T15:47:28.944Z,101679.28
2023-01-02T15:49:59.578Z,101676.41
2023-01-02T15:52:31.995Z,101677.59
2023-01-02T15:55:01.009Z,101692.63
2023-01-02T15:57:32.891Z,101699.78
2023-01-02T16:00:02.589Z,101703.81
2023-01-02T16:02:42.309Z,101692.91
2023-01-02T16:05:13.943Z,101713.69
2023-01-02T16:07:43.387Z,101709.13
2023-01-02T16:10:19.897Z,101710.72
2023-01-02T16:12:53.522Z,101719.44
2023-01-02T16:15:24.182Z,101723.06
2023-01-02T16:17:54.579Z,101739.34
2023-01-02T16:20:23.726Z,101742.47
2023-01-02T16:22:55.680Z,101749.59
2023-01-02T16:25:27.136Z,101751.19
2023-01-02T16:28:00.014Z,101749.72
2023-01-02T16:30:32.863Z,101758.34
2023-01-02T16:33:03.099Z,101766.94
2023-01-02T16:35:34.380Z,101770.34
2023-01-02T16:38:04.980Z,101779.50
2023-01-02T16:41:00.645Z,101784.22
2023-01-02T16:43:30.800Z,101780.84
2023-01-02T16:46:00.611Z,101788.63
2023-01-02T16:48:30.478Z,101787.91
2023-01-02T16:50:59.987Z,101795.00
2023-01-02T16:53:31.368Z,101794.69
2023-01-02T16:56:00.196Z,101802.19
2023-01-02T16:58:29.209Z,101805.03
2023-01-02T17:00:57.681Z,101810.72
2023-01-02T17:03:28.187Z,101812.75
2023-01-02T17:06:01.445Z,101815.78
2023-01-02T17:08:31.945Z,101830.03
2023-01-02T17:11:00.450Z,101820.63
2023-01-02T17:13:29.439Z,101827.69
2023-01-02T17:15:58.063Z,101829.66
2023-01-02T17:18:27.686Z,101838.03
2023-01-02T17:20:55.591Z,101852.63
2023-01-02T17:23:23.533Z,101849.16
2023-01-02T17:25:51.668Z,101853.31
2023-01-02T17:28:20.032Z,101861.16
2023-01-02T17:30:49.982Z,101856.97
2023-01-02T17:33:18.483Z,101853.53
2023-01-02T17:35:48.002Z,101863.78
2023-01-02T17:38:16.826Z,101856.88
2023-01-02T17:40:45.287Z,101865.97
2023-01-02T17:43:13.435Z,101877.47
2023-01-02T17:45:42.774Z,101883.31
2023-01-02T17:48:13.581Z,101884.53
2023-01-02T17:50:44.374Z,101885.06
2023-01-02T17:53:13.823Z,101884.34
2023-01-02T17:55:41.719Z,101891.31
2023-01-02T17:58:09.748Z,101903.03
2023-01-02T18:00:37.918Z,101901.56
2023-01-02T18:03:05.949Z,101900.75
2023-01-02T18:05:36.774Z,101910.72
2023-01-02T18:08:06.041Z,101906.03
2023-01-02T18:10:38.333Z,101918.00
2023-01-02T18:13:07.326Z,101914.06
2023-01-02T18:15:36.172Z,101926.50
2023-01-02T18:18:14.545Z,101914.69
2023-01-02T18:20:45.906Z,101922.06
2023-01-02T18:23:15.056Z,101923.09
2023-01-02T18:25:44.608Z,101920.38
2023-01-02T18:28:23.103Z,101926.31
2023-01-02T18:30:56.132Z,101925.53
2023-01-02T18:33:26.370Z,101927.91
2023-01-02T18:35:59.924Z,101930.47
2023-01-02T18:38:30.582Z,101933.53
2023-01-02T18:41:00.179Z,101942.56
2023-01-02T18:43:30.247Z,101944.19
2023-01-02T18:46:01.564Z,101954.28
2023-01-02T18:48:29.626Z,101958.63
2023-01-02T18:51:00.804Z,101963.69
2023-01-02T18:53:36.885Z,101963.66
2023-01-02T18:56:16.118Z,101963.28
2023-01-02T18:58:47.329Z,101968.84
2023-01-02T19:01:27.659Z,101969.31
2023-01-02T19:04:27.378Z,101981.28
2023-01-02T19:06:58.315Z,101981.56
2023-01-02T19:09:30.766Z,101988.56
2023-01-02T19:12:34.565Z,101995.84
2023-01-02T19:15:37.600Z,102000.63
2023-01-02T19:18:27.367Z,102003.72
2023-01-02T19:21:04.099Z,102005.56
2023-01-02T19:23:36.240Z,102020.03
2023-01-02T19:26:16.379Z,102018.06
2023-01-02T19:28:51.834Z,102022.84
2023-01-02T19:31:20.108Z,102026.44
2023-01-02T19:33:53.641Z,102028.88
2023-01-02T19:36:33.031Z,102035.31
2023-01-02T19:39:01.700Z,102045.63
2023-01-02T19:41:47.307Z,102045.66
2023-01-02T19:44:16.658Z,102049.50
2023-01-02T19:46:44.665Z,102060.31
2023-01-02T19:49:13.695Z,102052.28
2023-01-02T19:51:41.728Z,102060.06
2023-01-02T19:54:10.493Z,102059.94
2023-01-02T19:56:38.842Z,102061.81
2023-01-02T19:59:12.500Z,102071.63
2023-01-02T20:01:42.672Z,102066.34
2023-01-02T20:04:10.951Z,102072.31
2023-01-02T20:06:40.421Z,102077.13
2023-01-02T20:09:09.248Z,102077.50
2023-01-02T20:11:54.563Z,102080.59
2023-01-02T20:14:22.602Z,102090.78
2023-01-02T20:16:52.084Z,102096.00
2023-01-02T20:19:19.991Z,102097.47
2023-01-02T20:21:48.169Z,102101.38
2023-01-02T20:24:16.201Z,102110.25
2023-01-02T20:26:44.178Z,102114.94
2023-01-02T20:29:12.556Z,102133.94
2023-01-02T20:31:40.515Z,102121.72
2023-01-02T20:34:10.152Z,102143.34
2023-01-02T20:36:38.202Z,102138.00
2023-01-02T20:39:06.427Z,102141.31
2023-01-02T20:41:35.121Z,102145.25
2023-01-02T20:44:03.165Z,102142.16
2023-01-02T20:46:31.400Z,102147.72
2023-01-02T20:48:59.428Z,102148.84
2023-01-02T20:51:30.203Z,102153.22
2023-01-02T20:53:59.137Z,102169.66
2023-01-02T20:56:27.603Z,102172.25
2023-01-02T20:58:56.277Z,102173.66
2023-01-02T21:01:24.889Z,102182.00
2023-01-02T21:03:53.473Z,102178.13
2023-01-02T21:06:22.099Z,102186.75
2023-01-02T21:08:51.428Z,102199.34
2023-01-02T21:11:19.331Z,102199.81
2023-01-02T21:13:47.430Z,102213.69
2023-01-02T21:16:16.350Z,102206.28
2023-01-02T21:18:44.584Z,102210.78
2023-01-02T21:21:16.578Z,102200.63
2023-01-02T21:23:45.447Z,102205.81
2023-01-02T21:26:16.774Z,102198.38
2023-01-02T21:28:47.219Z,102205.94
2023-01-02T21:31:15.731Z,102199.13
2023-01-02T21:33:44.692Z,102201.66
2023-01-02T21:36:12.723Z,102195.06
2023-01-02T21:38:40.893Z,102203.34
2023-01-02T21:41:26.584Z,102205.09
2023-01-02T21:43:55.853Z,102203.81
2023-01-02T21:46:23.916Z,102222.63
2023-01-02T21:48:51.844Z,102214.03
2023-01-02T21:51:19.973Z,102226.72
2023-01-02T21:53:47.868Z,102221.31
2023-01-02T21:56:15.749Z,102219.41
2023-01-02T21:58:43.621Z,102236.69
2023-01-02T22:01:12.896Z,102232.28
2023-01-02T22:03:40.912Z,102242.44
2023-01-02T22:06:08.866Z,102250.34
2023-01-02T22:08:36.828Z,102260.56
2023-01-02T22:11:22.522Z,102259.19
2023-01-02T22:13:50.431Z,102262.84
2023-01-02T22:16:19.923Z,102266.69
2023-01-02T22:18:49.261Z,102269.19
2023-01-02T22:21:17.136Z,102279.91
2023-01-02T22:23:44.970Z,102285.19
2023-01-02T22:26:12.875Z,102281.25
2023-01-02T22:28:42.836Z,102291.19
2023-01-02T22:31:12.117Z,102288.91
2023-01-02T22:33:42.451Z,102295.22
2023-01-02T22:36:10.653Z,102304.22
2023-01-02T22:38:55.120Z,102307.59
2023-01-02T22:41:29.634Z,102308.69
2023-01-02T22:43:58.832Z,102302.84
2023-01-02T22:46:31.366Z,102304.03
2023-01-02T22:49:00.786Z,102308.56
2023-01-02T22:51:57.619Z,102304.47
2023-01-02T22:54:19.799Z,102302.84
2023-01-02T22:56:48.459Z,102309.81
2023-01-02T22:59:16.714Z,102307.41
2023-01-02T23:01:47.232Z,102304.16
2023-01-02T23:04:19.020Z,102314.78
2023-01-02T23:07:22.319Z,102317.59
2023-01-02T23:09:36.885Z,102327.03
2023-01-02T23:12:05.693Z,102335.06
2023-01-02T23:14:33.686Z,102336.34
2023-01-02T23:17:19.278Z,102338.31
2023-01-02T23:19:48.588Z,102347.84
2023-01-02T23:22:16.537Z,102349.97
2023-01-02T23:24:44.455Z,102354.00
2023-01-02T23:27:13.671Z,102357.78
2023-01-02T23:29:42.455Z,102349.97
2023-01-02T23:32:12.662Z,102355.69
2023-01-02T23:34:41.466Z,102352.03
2023-01-02T23:37:10.861Z,102361.69
2023-01-02T23:39:38.747Z,102368.81
2023-01-02T23:42:07.452Z,102371.72
2023-01-02T23:44:35.376Z,102374.19
2023-01-02T23:47:09.323Z,102376.94
2023-01-02T23:49:38.930Z,102380.88
2023-01-02T23:52:07.809Z,102393.22
2023-01-02T23:54:37.426Z,102392.91
2023-01-02T23:57:05.455Z,102384.81
2023-01-02T23:59:33.764Z,102394.53
